Airfield :
LOGIN :

Register | Disclaimer

   EN    FR    IT 

 










Legend :    VFR   Marginal VFR   IFR   Intensive IFR   Very Intensive IFR
Visi :
Ceiling :
>= 8 km
>= 3000ft
5 to 8 km
1000 to 3000 ft
1500m to 5 km
500 to 1000 ft
800 to 1500m
200 to 500 ft
< 800m
< 200 ft
Symbols :   Thunderstorms  Fog  Heavy snow  Heavy precipitations  Wind > 20 kt
SIGMETs :     Misc.  Thunderstorms  Icing  Turbulence  Mountain Waves  Volcanic Ashes






- Airport Elevation : 36 ft
- IATA code : LTQ


LFAT - Le Touquet

CURRENT METAR :
  • 250900Z AUTO 25008KT 5000 RA BR SCT007/// BKN022/// BKN027/// ///TCU 15/14 Q1018 TEMPO OVC003

EXPIRED METARs :
  • 250830Z AUTO 25007KT 220V290 8000 -RA BKN006/// OVC010/// ///TCU 15/15 Q1018 TEMPO 3000 RA OVC003
  • 250800Z AUTO 24009KT 210V270 8000 -RA OVC006 15/15 Q1018 TEMPO 3000 RA OVC003
  • 250730Z AUTO 24007KT 210V270 9999 OVC006 15/15 Q1018 TEMPO 3000 RA OVC003
  • 250700Z AUTO 24008KT 7000 -RA BKN005 BKN009 OVC034 15/15 Q1018 TEMPO 3000 RA
  • 250630Z AUTO 24009KT 210V270 9999 -RA OVC005 15/15 Q1018 TEMPO 3000 RA

TAF TAF LFAT
Valid from the 25 at 09:00 until the 25 at 18:00 UTC


250800Z 2509/2518 24010KT 8000 OVC009
TEMPO 2509/2518 3000 RA OVC003
ATIS : +33 3 21 06 62 84



MET'MAP, your aeronautical weather chart ! - Copyright ORBIFLY December 2007 - Disclaimer

ORBIFLY MET'MAP TEAM :

Programming & Development : Alexandra Zaïnal
Concept & original design : Baudouin d'Aumeries
Assistance for programming : Marc-Olivier Méhu
Technical & hardware support : Manuel Goepfert

Contact : metmap@orbifly.com




SOURCES & CREDITS :

   NOAA